Time;durP1;ratioP1;P1;durP2;ratioP2;P2;SDS_P1;SDS_P2;PMS_P1;PMS_P2;Temp;Humidity;BMP_temperature;BMP_pressure;BME280_temperature;BME280_humidity;BME280_pressure;Samples;Min_cycle;Max_cycle;Signal;HPM_P1;HPM_P2
2023/10/12 00:01:59;;;;;;;5.25;3.17;;;;;;;6.33;74.36;98137.59;5092043;28;20465;-56
2023/10/12 00:07:44;;;;;;;11.23;3.65;;;;;;;6.44;74.78;98128.81;5051870;28;20067;-57
2023/10/12 00:12:47;;;;;;;5.75;3.40;;;;;;;6.49;74.75;98120.16;5071562;28;20551;-55
2023/10/12 00:17:55;;;;;;;8.57;3.50;;;;;;;6.36;75.10;98098.41;5087335;28;20063;-57
2023/10/12 00:20:31;;;;;;;5.30;3.45;;;;;;;6.39;75.75;98088.44;5071847;28;20040;-56
2023/10/12 00:23:10;;;;;;;6.30;3.38;;;;;;;6.40;76.29;98068.97;5053598;28;20040;-57
2023/10/12 00:25:47;;;;;;;6.13;3.90;;;;;;;6.31;77.35;98052.81;5071776;28;20064;-57
2023/10/12 00:28:16;;;;;;;7.75;3.60;;;;;;;6.25;78.38;98045.88;5053448;28;20413;-57
2023/10/12 00:30:43;;;;;;;7.22;3.30;;;;;;;6.22;78.56;98030.56;5036381;28;20040;-57
2023/10/12 00:33:09;;;;;;;5.55;3.50;;;;;;;6.19;78.99;98015.28;5053681;28;20048;-56
2023/10/12 00:35:39;;;;;;;8.23;4.03;;;;;;;6.21;79.38;98018.47;5053353;28;20040;-57
2023/10/12 00:38:15;;;;;;;6.05;3.90;;;;;;;6.22;79.35;98028.72;5071485;28;20033;-56
2023/10/12 00:40:55;;;;;;;6.88;3.63;;;;;;;6.35;79.35;98032.84;5085825;28;20090;-57
2023/10/12 00:43:21;;;;;;;7.10;3.93;;;;;;;6.40;79.18;98047.91;5071439;28;20037;-56
2023/10/12 00:45:49;;;;;;;7.55;4.15;;;;;;;6.45;78.28;98037.47;5071516;28;20101;-56
2023/10/12 00:48:16;;;;;;;8.40;4.00;;;;;;;6.40;78.92;98042.66;5086628;28;20040;-56
2023/10/12 00:50:47;;;;;;;8.73;3.75;;;;;;;6.45;77.89;98051.41;5053499;28;20072;-58
2023/10/12 00:53:31;;;;;;;9.70;4.15;;;;;;;6.40;78.21;98032.13;5070361;28;20468;-57
2023/10/12 00:55:57;;;;;;;6.18;3.70;;;;;;;6.55;78.43;98043.66;5054882;28;20047;-56
2023/10/12 00:58:23;;;;;;;5.65;4.03;;;;;;;6.57;78.33;98054.72;5075121;28;20123;-57
2023/10/12 01:00:52;;;;;;;7.07;3.75;;;;;;;6.58;77.92;98053.69;5075118;28;20071;-56
2023/10/12 01:06:20;;;;;;;8.13;4.40;;;;;;;6.54;77.97;98025.47;5075282;28;20425;-56
2023/10/12 01:08:47;;;;;;;6.43;3.65;;;;;;;6.52;78.08;98006.47;5075121;28;20123;-56
2023/10/12 01:11:20;;;;;;;5.30;3.70;;;;;;;6.55;77.73;98006.00;5075150;28;20036;-56
2023/10/12 01:13:49;;;;;;;6.22;3.72;;;;;;;6.55;78.57;98000.72;5074694;28;20085;-55
2023/10/12 01:16:23;;;;;;;7.78;4.03;;;;;;;6.58;78.36;98002.88;5075071;28;20377;-56
2023/10/12 01:18:55;;;;;;;5.68;3.72;;;;;;;6.66;77.16;97994.53;5057214;28;20139;-57
2023/10/12 01:21:21;;;;;;;8.38;3.95;;;;;;;6.61;77.07;97986.59;5072918;28;20045;-55
2023/10/12 01:23:51;;;;;;;8.43;4.90;;;;;;;6.55;77.01;97984.94;5056771;28;20044;-55
2023/10/12 01:26:19;;;;;;;7.00;4.50;;;;;;;6.59;76.74;97971.03;5074929;28;20401;-56
2023/10/12 01:28:49;;;;;;;7.68;3.75;;;;;;;6.70;76.65;97971.16;5074344;28;20493;-56
2023/10/12 01:31:27;;;;;;;8.43;3.88;;;;;;;6.69;76.17;97964.28;5074977;28;20074;-58
2023/10/12 01:33:54;;;;;;;6.05;3.70;;;;;;;6.80;75.55;97974.69;5074684;28;20048;-55
2023/10/12 01:36:31;;;;;;;7.05;4.15;;;;;;;6.78;76.20;97965.44;5056846;28;20076;-58
2023/10/12 01:39:11;;;;;;;6.63;3.65;;;;;;;6.77;75.04;97932.25;5056803;28;20033;-56
2023/10/12 01:41:40;;;;;;;6.93;3.65;;;;;;;6.76;75.49;97920.13;5074308;28;20055;-57
2023/10/12 01:44:11;;;;;;;7.97;4.15;;;;;;;6.75;75.12;97915.91;5056405;28;20041;-56
2023/10/12 01:46:40;;;;;;;7.93;3.90;;;;;;;6.76;75.64;97935.91;5074715;28;20045;-54
2023/10/12 01:49:08;;;;;;;9.80;4.17;;;;;;;6.82;75.35;97925.22;5089769;28;20037;-56
2023/10/12 01:51:40;;;;;;;7.38;4.05;;;;;;;6.88;74.45;97954.22;5074576;28;20052;-56
2023/10/12 01:54:11;;;;;;;9.98;3.90;;;;;;;6.91;74.42;97932.63;5074047;28;20037;-55
2023/10/12 01:56:38;;;;;;;7.72;3.78;;;;;;;7.01;73.86;97924.84;5057148;28;20130;-55
2023/10/12 01:59:07;;;;;;;6.88;3.90;;;;;;;7.01;74.31;97912.47;5089689;28;20151;-58
2023/10/12 02:01:34;;;;;;;5.63;3.78;;;;;;;7.00;73.96;97904.81;5056165;28;20155;-57
2023/10/12 02:04:02;;;;;;;6.38;3.80;;;;;;;6.85;74.76;97883.59;5056200;28;20032;-55
2023/10/12 02:06:29;;;;;;;9.10;4.25;;;;;;;6.86;74.57;97898.38;5073987;28;20033;-57
2023/10/12 02:08:59;;;;;;;5.95;3.80;;;;;;;6.86;74.68;97896.53;5074070;28;20044;-57
2023/10/12 02:13:54;;;;;;;7.60;3.65;;;;;;;7.00;74.39;97891.63;5073908;28;20040;-56
2023/10/12 02:18:56;;;;;;;6.40;3.90;;;;;;;7.08;73.89;97879.84;5039147;28;20177;-56
2023/10/12 02:21:25;;;;;;;9.83;4.23;;;;;;;7.11;73.40;97876.72;5073609;28;20093;-56
2023/10/12 02:31:58;;;;;;;7.53;3.73;;;;;;;7.20;73.35;97852.25;5055762;28;20182;-56
2023/10/12 02:34:28;;;;;;;12.07;4.35;;;;;;;7.17;73.56;97863.31;5073564;28;20066;-58
2023/10/12 02:39:41;;;;;;;11.93;4.32;;;;;;;7.24;73.30;97847.31;5040941;28;20060;-57
2023/10/12 02:47:22;;;;;;;8.40;3.88;;;;;;;7.29;72.96;97813.06;5040611;28;20045;-56
2023/10/12 02:49:51;;;;;;;8.32;4.15;;;;;;;7.36;72.69;97779.38;5073254;28;20036;-57
2023/10/12 02:52:20;;;;;;;8.07;4.20;;;;;;;7.34;72.96;97799.13;5055354;28;20488;-56
2023/10/12 02:54:55;;;;;;;8.18;4.10;;;;;;;7.41;73.07;97812.88;5055322;28;20048;-56
2023/10/12 02:57:24;;;;;;;9.60;3.72;;;;;;;7.38;72.71;97811.56;5073483;28;20049;-57
2023/10/12 03:02:54;;;;;;;8.77;4.30;;;;;;;7.36;73.35;97805.72;4997690;28;20045;-56
2023/10/12 03:05:32;;;;;;;9.05;4.20;;;;;;;7.41;73.80;97803.13;5059501;28;20513;-57
2023/10/12 03:08:06;;;;;;;7.57;4.00;;;;;;;7.33;74.65;97793.06;5038102;28;20101;-57
2023/10/12 03:10:33;;;;;;;8.75;4.22;;;;;;;7.25;75.51;97777.72;5054774;28;20390;-55
2023/10/12 03:13:04;;;;;;;8.57;4.38;;;;;;;7.25;74.92;97765.34;5054694;28;20101;-56
2023/10/12 03:15:47;;;;;;;9.25;4.13;;;;;;;7.21;75.73;97766.91;5055191;28;20036;-52
2023/10/12 03:18:13;;;;;;;8.05;4.32;;;;;;;7.18;76.05;97756.88;5071832;28;20036;-56
2023/10/12 03:20:51;;;;;;;8.05;4.35;;;;;;;7.24;75.74;97755.84;5072687;28;20055;-56
2023/10/12 03:23:19;;;;;;;10.35;4.95;;;;;;;7.25;76.22;97731.06;5072693;28;20113;-55
2023/10/12 03:25:46;;;;;;;9.45;4.28;;;;;;;7.23;75.84;97745.56;5072448;28;20433;-56
2023/10/12 03:28:43;;;;;;;8.98;4.90;;;;;;;7.20;76.36;97732.88;5054690;28;20070;-57
2023/10/12 03:31:15;;;;;;;7.63;3.80;;;;;;;7.28;75.56;97750.84;5072664;28;20401;-57
2023/10/12 03:33:46;;;;;;;8.00;4.15;;;;;;;7.24;76.28;97755.06;5071909;28;20121;-58
2023/10/12 03:36:22;;;;;;;;;;;;;;;7.27;76.74;97746.66;5054539;28;20040;-56
2023/10/12 03:39:07;;;;;;;8.23;4.10;;;;;;;7.31;75.98;97747.72;5054097;28;19920;-57
2023/10/12 03:41:54;;;;;;;10.32;3.78;;;;;;;7.38;75.69;97748.28;5053937;28;20131;-58
2023/10/12 03:44:35;;;;;;;7.25;4.28;;;;;;;7.32;75.68;97744.00;5071801;28;20040;-57
2023/10/12 03:47:05;;;;;;;8.45;4.40;;;;;;;7.36;76.02;97723.22;5072646;28;20052;-52
2023/10/12 03:49:32;;;;;;;7.55;4.05;;;;;;;7.37;75.47;97727.44;5092305;28;20040;-55
2023/10/12 03:52:14;;;;;;;6.40;4.38;;;;;;;7.39;75.85;97712.97;5074279;28;20048;-57
2023/10/12 03:54:55;;;;;;;10.88;4.32;;;;;;;7.40;75.92;97709.25;5092197;28;20051;-57
2023/10/12 03:57:45;;;;;;;11.98;4.63;;;;;;;7.44;75.40;97699.81;5092579;28;20514;-57
2023/10/12 04:05:21;;;;;;;8.57;4.32;;;;;;;7.50;75.05;97740.97;5091743;28;20040;-57
2023/10/12 04:13:08;;;;;;;7.30;4.68;;;;;;;7.73;74.64;97741.56;5043084;28;20459;-58
2023/10/12 04:18:28;;;;;;;8.00;4.68;;;;;;;7.78;74.36;97731.03;5059845;28;20058;-58
2023/10/12 04:20:58;;;;;;;10.77;4.82;;;;;;;7.82;75.05;97734.72;5091923;28;20040;-57
2023/10/12 04:28:51;;;;;;;10.13;4.90;;;;;;;7.88;74.26;97725.78;5090700;28;20071;-58
2023/10/12 04:31:20;;;;;;;8.70;4.47;;;;;;;7.88;74.24;97715.25;5072527;28;20098;-56
2023/10/12 04:36:44;;;;;;;7.85;4.28;;;;;;;7.97;73.09;97707.56;5074310;28;20101;-54
2023/10/12 04:39:27;;;;;;;8.15;4.40;;;;;;;7.97;73.17;97711.03;5091608;28;20438;-58
2023/10/12 04:47:06;;;;;;;9.10;4.60;;;;;;;8.08;72.55;97716.31;5071521;28;20119;-56
2023/10/12 04:57:33;;;;;;;7.22;4.45;;;;;;;8.15;73.42;97716.88;5091622;28;20048;-59
2023/10/12 05:07:54;;;;;;;7.78;4.60;;;;;;;8.04;75.71;97723.97;5091417;28;20078;-55
2023/10/12 05:13:04;;;;;;;9.00;5.00;;;;;;;8.02;76.01;97720.00;5059240;28;20127;-58
2023/10/12 05:15:40;;;;;;;10.98;5.25;;;;;;;7.97;76.00;97704.94;5070126;28;20076;-55
2023/10/12 05:18:07;;;;;;;10.88;4.82;;;;;;;7.99;76.59;97710.75;5070674;28;20040;-58
2023/10/12 05:20:33;;;;;;;6.68;4.43;;;;;;;8.03;77.27;97711.03;5070560;28;20056;-59
2023/10/12 05:22:59;;;;;;;10.40;4.82;;;;;;;8.06;77.26;97692.84;5052795;28;20045;-61
2023/10/12 05:25:47;;;;;;;8.00;4.43;;;;;;;8.04;77.58;97702.06;5070794;28;20132;-58
2023/10/12 05:28:31;;;;;;;11.10;5.15;;;;;;;7.92;85.37;97683.84;5070910;28;20047;-58
2023/10/12 05:36:11;;;;;;;8.70;5.00;;;;;;;7.77;86.42;97679.34;5070904;28;20043;-57
2023/10/12 05:39:10;;;;;;;8.88;4.80;;;;;;;7.84;88.30;97671.94;5070086;28;20036;-60
2023/10/12 05:41:35;;;;;;;9.07;4.47;;;;;;;7.73;85.15;97649.25;5061025;28;20131;-59
2023/10/12 05:44:08;;;;;;;10.95;4.72;;;;;;;7.77;85.56;97657.44;5094775;28;20119;-58
2023/10/12 05:46:38;;;;;;;8.90;5.50;;;;;;;7.85;82.28;97654.28;5094454;28;20070;-56
2023/10/12 05:49:14;;;;;;;9.95;5.45;;;;;;;7.84;81.73;97648.22;5094567;28;20035;-58
2023/10/12 05:51:46;;;;;;;9.52;5.30;;;;;;;7.78;81.81;97649.25;5076583;28;20060;-55
2023/10/12 05:54:15;;;;;;;12.10;5.70;;;;;;;7.85;82.57;97641.91;5094566;28;20036;-58
2023/10/12 05:56:43;;;;;;;10.30;5.47;;;;;;;7.87;83.46;97649.53;5093780;28;20048;-58
2023/10/12 05:59:12;;;;;;;10.20;5.53;;;;;;;7.89;83.50;97636.88;5093987;28;20425;-55
2023/10/12 06:01:38;;;;;;;10.57;5.70;;;;;;;7.86;83.34;97627.66;5093685;28;20067;-58
2023/10/12 06:04:08;;;;;;;11.65;5.68;;;;;;;7.90;83.33;97615.50;5094010;28;20115;-59
2023/10/12 06:06:41;;;;;;;10.03;6.00;;;;;;;7.92;83.10;97617.88;5094551;28;20433;-59
2023/10/12 06:09:12;;;;;;;11.15;5.90;;;;;;;7.99;82.28;97609.72;5094136;28;20279;-58
2023/10/12 06:11:42;;;;;;;11.23;5.65;;;;;;;8.11;82.57;97608.38;5076548;28;20424;-58
2023/10/12 06:14:09;;;;;;;11.80;5.70;;;;;;;8.09;81.14;97607.88;5093140;28;20032;-56
2023/10/12 06:16:41;;;;;;;8.95;4.97;;;;;;;8.03;81.70;97600.19;5093752;28;20545;-60
2023/10/12 06:19:26;;;;;;;10.50;5.80;;;;;;;8.01;82.39;97599.69;5084653;28;20420;-57
2023/10/12 06:21:53;;;;;;;10.57;5.90;;;;;;;7.99;81.88;97584.09;5091905;28;20048;-60
2023/10/12 06:24:33;;;;;;;10.35;5.57;;;;;;;8.08;82.23;97589.66;5093212;28;20032;-58
2023/10/12 06:27:03;;;;;;;10.43;6.82;;;;;;;8.08;81.58;97587.78;5094124;28;20070;-58
2023/10/12 06:29:30;;;;;;;8.80;5.22;;;;;;;8.14;81.39;97593.88;5093138;28;20119;-62
2023/10/12 06:31:57;;;;;;;10.82;6.13;;;;;;;8.25;81.30;97594.66;5093447;28;20055;-59
2023/10/12 06:34:23;;;;;;;8.57;5.20;;;;;;;8.26;80.28;97598.88;5093151;28;20052;-58
2023/10/12 06:36:57;;;;;;;11.18;5.65;;;;;;;8.29;80.27;97588.56;5075370;28;20514;-57
2023/10/12 06:46:53;;;;;;;10.70;6.10;;;;;;;8.53;78.67;97580.91;5074835;28;20046;-58
2023/10/12 06:49:29;;;;;;;13.77;5.72;;;;;;;8.54;79.08;97582.50;5091535;28;20027;-56
2023/10/12 06:52:02;;;;;;;11.05;5.32;;;;;;;8.55;78.16;97583.28;5075314;28;20044;-58
2023/10/12 06:54:33;;;;;;;9.73;5.78;;;;;;;8.55;78.43;97583.28;5089478;28;20378;-57
2023/10/12 07:02:24;;;;;;;9.38;5.68;;;;;;;8.64;78.44;97581.66;5054044;28;20069;-60
2023/10/12 07:04:53;;;;;;;15.70;5.57;;;;;;;8.63;78.97;97564.25;5066946;28;20363;-60
2023/10/12 07:07:27;;;;;;;16.10;6.13;;;;;;;8.67;78.95;97567.91;5071428;28;20044;-60
2023/10/12 07:12:48;;;;;;;10.15;5.97;;;;;;;8.86;78.73;97552.28;5072472;28;20430;-59
2023/10/12 07:15:20;;;;;;;12.63;5.88;;;;;;;9.02;79.94;97550.34;5072060;28;20044;-59
2023/10/12 07:17:49;;;;;;;8.35;5.65;;;;;;;9.05;79.51;97528.66;5070983;28;20391;-57
2023/10/12 07:23:34;;;;;;;10.45;6.22;;;;;;;9.13;79.13;97522.03;5035897;28;20555;-57
2023/10/12 07:25:49;;;;;;;11.75;5.75;;;;;;;9.13;78.62;97514.88;5045630;28;20063;-59
2023/10/12 07:28:19;;;;;;;9.43;6.10;;;;;;;9.22;78.35;97512.44;5054121;28;20037;-57
2023/10/12 07:33:32;;;;;;;10.25;6.10;;;;;;;9.35;78.29;97492.53;5070872;28;20082;-58
2023/10/12 07:36:11;;;;;;;10.30;5.80;;;;;;;9.33;77.83;97501.53;5019346;28;20044;-59
2023/10/12 07:38:36;;;;;;;11.57;6.50;;;;;;;9.30;77.92;97491.50;5069180;28;20043;-60
2023/10/12 07:41:09;;;;;;;12.30;6.47;;;;;;;9.29;78.23;97494.41;5071310;28;20131;-60
2023/10/12 07:43:38;;;;;;;11.65;6.35;;;;;;;9.32;78.35;97485.94;5068896;28;20040;-61
2023/10/12 07:46:24;;;;;;;11.63;6.33;;;;;;;9.38;78.12;97478.75;5070223;28;20036;-57
2023/10/12 07:48:49;;;;;;;13.45;6.53;;;;;;;9.39;77.46;97475.06;5070120;28;20279;-60
2023/10/12 07:51:16;;;;;;;12.23;6.82;;;;;;;9.39;78.78;97464.47;5071132;28;20101;-58
2023/10/12 07:53:50;;;;;;;9.38;6.43;;;;;;;9.29;79.32;97466.16;5069904;28;20076;-60
2023/10/12 07:56:17;;;;;;;11.00;6.38;;;;;;;9.24;79.88;97444.22;5069622;28;20037;-59
2023/10/12 07:58:59;;;;;;;9.77;5.97;;;;;;;9.25;79.73;97449.22;5071092;28;20703;-60
2023/10/12 08:03:52;;;;;;;14.70;6.97;;;;;;;9.41;79.39;97438.53;5072773;28;20063;-60
2023/10/12 08:09:19;;;;;;;11.65;6.90;;;;;;;9.50;79.22;97432.38;5091401;28;20131;-58
2023/10/12 08:11:45;;;;;;;12.60;6.82;;;;;;;9.55;78.25;97423.59;5091690;28;20619;-58
2023/10/12 08:17:24;;;;;;;17.60;7.05;;;;;;;9.45;79.07;97419.19;5091264;28;20063;-56
2023/10/12 08:19:39;;;;;;;11.63;7.10;;;;;;;9.49;78.50;97422.06;5090919;28;20096;-58
2023/10/12 08:22:14;;;;;;;13.73;7.00;;;;;;;9.55;78.16;97421.75;5091242;28;20055;-59
2023/10/12 08:24:40;;;;;;;13.23;6.93;;;;;;;9.67;77.22;97410.00;5089887;28;20069;-62
2023/10/12 08:27:06;;;;;;;12.07;6.95;;;;;;;9.69;77.71;97408.66;5091334;28;20109;-60
2023/10/12 08:37:27;;;;;;;12.25;6.80;;;;;;;9.72;76.42;97378.22;5091285;28;20127;-58
2023/10/12 08:45:07;;;;;;;10.40;6.72;;;;;;;9.90;75.86;97389.94;5090889;28;20553;-62
2023/10/12 08:52:32;;;;;;;16.98;7.00;;;;;;;9.86;75.47;97365.09;5090695;28;20048;-60
2023/10/12 08:55:14;;;;;;;12.13;6.63;;;;;;;9.91;75.80;97363.19;5090788;28;20040;-61
2023/10/12 08:58:01;;;;;;;9.77;6.90;;;;;;;9.95;76.37;97345.66;5074399;28;20044;-60
2023/10/12 09:03:06;;;;;;;13.90;7.18;;;;;;;10.27;74.66;97346.91;5091070;28;20044;-60
2023/10/12 09:05:34;;;;;;;12.45;7.15;;;;;;;10.31;74.44;97337.31;5090581;28;20085;-59
2023/10/12 09:10:56;;;;;;;8.77;5.87;;;;;;;10.28;75.16;97332.59;5090703;28;20475;-60
2023/10/12 09:13:37;;;;;;;10.90;6.72;;;;;;;10.22;76.84;97339.00;5088893;28;20043;-59
2023/10/12 09:16:10;;;;;;;11.73;6.60;;;;;;;10.10;76.94;97328.03;5088691;28;20032;-62
2023/10/12 09:18:45;;;;;;;13.10;6.82;;;;;;;10.00;80.65;97326.31;5094522;28;20370;-59
2023/10/12 09:26:46;;;;;;;12.60;7.70;;;;;;;9.79;86.82;97405.13;5094389;28;20051;-58
2023/10/12 09:29:28;;;;;;;18.17;7.85;;;;;;;9.73;87.77;97422.13;5060740;28;20032;-58
2023/10/12 09:34:43;;;;;;;15.20;8.13;;;;;;;9.60;89.82;97430.72;5076108;28;20036;-57
2023/10/12 09:37:16;;;;;;;15.70;8.00;;;;;;;9.54;89.34;97436.03;5089003;28;20040;-59
2023/10/12 09:39:46;;;;;;;15.23;8.70;;;;;;;9.58;90.73;97435.50;5074323;28;20401;-55
2023/10/12 09:42:32;;;;;;;12.18;8.38;;;;;;;9.47;89.92;97432.13;5010677;28;20070;-55
2023/10/12 09:45:25;;;;;;;12.52;8.40;;;;;;;9.59;90.68;97443.16;5038131;28;20044;-55
2023/10/12 09:49:06;;;;;;;11.93;8.00;;;;;;;9.76;87.87;97432.13;5075491;28;20040;-56
2023/10/12 09:52:58;;;;;;;13.07;8.55;;;;;;;9.87;86.08;97419.59;5084094;28;20105;-58
2023/10/12 09:56:15;;;;;;;16.73;7.90;;;;;;;9.83;85.80;97419.38;5048807;28;20402;-55
2023/10/12 09:59:08;;;;;;;11.57;8.25;;;;;;;9.97;86.79;97427.41;5056493;28;20051;-59
2023/10/12 10:05:01;;;;;;;13.45;8.45;;;;;;;10.09;85.91;97427.03;5071421;28;20043;-60
2023/10/12 10:07:08;;;;;;;13.93;8.77;;;;;;;10.16;85.69;97427.50;5024443;28;20052;-59
2023/10/12 10:12:04;;;;;;;13.35;8.30;;;;;;;10.21;85.28;97425.59;5071683;28;20106;-59
2023/10/12 10:14:34;;;;;;;15.27;8.57;;;;;;;10.26;85.07;97426.59;5070045;28;20044;-60
2023/10/12 10:17:01;;;;;;;15.57;8.07;;;;;;;10.30;85.32;97423.13;5055536;28;20529;-56
2023/10/12 10:19:30;;;;;;;12.73;8.25;;;;;;;10.31;84.65;97424.69;5071463;28;20033;-58
2023/10/12 10:22:11;;;;;;;12.32;7.70;;;;;;;10.34;84.49;97421.47;5072609;28;20055;-56
2023/10/12 10:24:46;;;;;;;12.15;8.25;;;;;;;10.44;84.83;97431.16;5053167;28;20033;-58
2023/10/12 10:27:13;;;;;;;13.82;7.57;;;;;;;10.46;84.39;97432.44;5051840;28;20471;-58
2023/10/12 10:29:56;;;;;;;14.05;8.00;;;;;;;10.53;83.95;97431.31;5070667;28;20397;-59
2023/10/12 10:32:42;;;;;;;13.50;8.35;;;;;;;10.60;84.04;97429.13;5072091;28;20055;-59
2023/10/12 10:35:14;;;;;;;12.25;7.53;;;;;;;10.62;84.91;97435.72;5070276;28;20089;-57
2023/10/12 10:37:58;;;;;;;12.43;7.63;;;;;;;10.59;85.16;97443.41;5070984;28;20066;-56
2023/10/12 10:40:39;;;;;;;11.65;8.15;;;;;;;10.58;84.69;97449.81;5071760;28;20049;-58
2023/10/12 10:43:08;;;;;;;12.82;7.55;;;;;;;10.44;85.89;97447.84;5072885;28;20121;-58
2023/10/12 10:45:37;;;;;;;13.10;8.57;;;;;;;10.44;86.84;97455.00;5072934;28;20113;-56
2023/10/12 10:48:04;;;;;;;12.60;8.38;;;;;;;10.48;86.76;97449.94;5071750;28;20166;-60
2023/10/12 10:50:33;;;;;;;14.05;8.52;;;;;;;10.50;86.34;97458.38;5064106;28;20179;-55
2023/10/12 10:53:00;;;;;;;17.35;9.27;;;;;;;10.53;86.46;97449.84;5001892;28;20334;-55
2023/10/12 10:55:31;;;;;;;11.45;7.70;;;;;;;10.52;87.54;97451.72;5052798;28;20041;-54
2023/10/12 10:57:57;;;;;;;13.73;8.15;;;;;;;10.44;87.96;97468.22;5040170;28;20036;-56
2023/10/12 11:00:33;;;;;;;16.00;8.85;;;;;;;10.37;89.08;97467.81;5072868;28;20044;-55
2023/10/12 11:03:04;;;;;;;16.10;8.50;;;;;;;10.36;89.27;97466.22;5070336;28;20040;-55
2023/10/12 11:05:30;;;;;;;;;;;;;;;10.33;89.76;97464.94;5022108;28;20047;-56
2023/10/12 11:08:12;;;;;;;13.05;8.35;;;;;;;10.32;90.31;97471.28;5072267;28;20308;-57
2023/10/12 11:11:14;;;;;;;14.73;8.68;;;;;;;10.26;90.80;97490.13;5072667;28;20087;-57
2023/10/12 11:13:25;;;;;;;13.50;8.35;;;;;;;10.26;91.49;97498.09;5072329;28;20037;-55
2023/10/12 11:15:51;;;;;;;12.60;9.05;;;;;;;10.24;90.83;97511.63;5072361;28;20048;-58
2023/10/12 11:18:17;;;;;;;11.68;8.30;;;;;;;10.24;91.60;97491.22;5072265;28;20033;-57
2023/10/12 11:20:53;;;;;;;11.40;7.70;;;;;;;10.26;91.56;97503.38;5072374;28;20044;-55
2023/10/12 11:23:19;;;;;;;13.07;8.38;;;;;;;10.23;91.54;97491.47;5072246;28;20490;-59
2023/10/12 11:25:45;;;;;;;11.65;8.23;;;;;;;10.29;91.20;97518.72;5072073;28;20083;-57
2023/10/12 11:28:23;;;;;;;12.27;8.25;;;;;;;10.28;90.62;97495.97;5070673;28;20063;-57
2023/10/12 11:30:51;;;;;;;14.45;8.50;;;;;;;10.30;91.05;97513.16;5072105;28;20044;-58
2023/10/12 11:33:27;;;;;;;13.77;8.73;;;;;;;10.35;91.47;97489.28;5070461;28;20036;-59
2023/10/12 11:36:00;;;;;;;12.02;8.98;;;;;;;10.35;91.43;97489.28;5072203;28;20490;-58
2023/10/12 11:38:26;;;;;;;13.57;8.45;;;;;;;10.40;90.85;97485.78;5070679;28;20041;-56
2023/10/12 11:40:58;;;;;;;11.23;8.07;;;;;;;10.49;90.67;97473.47;5071108;28;20048;-58
2023/10/12 11:43:56;;;;;;;12.65;7.78;;;;;;;10.54;90.70;97470.00;5019339;28;20498;-57
2023/10/12 11:46:26;;;;;;;11.60;7.93;;;;;;;10.69;90.53;97457.34;5070625;28;20395;-59
2023/10/12 11:49:13;;;;;;;12.65;7.57;;;;;;;10.72;89.31;97460.50;5052185;28;20401;-58
2023/10/12 11:51:50;;;;;;;12.27;8.32;;;;;;;10.78;89.88;97469.97;5052167;28;20498;-56
2023/10/12 11:54:20;;;;;;;11.27;7.82;;;;;;;10.78;89.27;97457.50;5065692;28;20040;-60
2023/10/12 11:56:49;;;;;;;13.65;8.07;;;;;;;10.88;89.90;97438.00;5071890;28;20049;-56
2023/10/12 11:59:27;;;;;;;11.82;7.25;;;;;;;10.90;88.62;97439.28;5071058;28;20075;-58
2023/10/12 12:01:56;;;;;;;10.15;7.32;;;;;;;10.90;88.94;97443.81;5083322;28;20068;-58
2023/10/12 12:07:17;;;;;;;14.40;8.10;;;;;;;10.82;90.45;97381.63;5073796;28;20051;-57
2023/10/12 12:09:48;;;;;;;14.32;8.02;;;;;;;10.87;90.37;97417.88;5090969;28;20485;-59
2023/10/12 12:12:16;;;;;;;12.80;8.07;;;;;;;10.78;96.39;97409.78;5073480;28;20378;-56
2023/10/12 12:14:48;;;;;;;12.25;7.90;;;;;;;10.72;97.04;97389.72;5073212;28;20055;-56
2023/10/12 12:17:17;;;;;;;12.48;7.95;;;;;;;10.74;97.38;97360.31;5074253;28;20496;-55
2023/10/12 12:19:43;;;;;;;12.32;8.20;;;;;;;10.76;96.69;97335.06;5090799;28;20032;-55
2023/10/12 12:22:16;;;;;;;14.05;7.53;;;;;;;10.77;96.19;97325.28;5091471;28;20094;-56
2023/10/12 12:24:44;;;;;;;14.50;8.48;;;;;;;10.75;96.31;97338.81;5072486;28;20028;-58
2023/10/12 12:29:57;;;;;;;13.40;7.97;;;;;;;10.86;96.00;97371.25;5091007;28;20043;-56
2023/10/12 12:32:27;;;;;;;12.82;8.40;;;;;;;10.96;95.52;97386.22;5091306;28;20036;-56
2023/10/12 12:34:54;;;;;;;15.27;8.05;;;;;;;11.02;95.90;97391.13;5037554;28;20036;-57
2023/10/12 12:37:22;;;;;;;13.23;8.48;;;;;;;11.04;94.72;97404.91;5053592;28;20044;-56
2023/10/12 12:40:27;;;;;;;12.50;8.57;;;;;;;11.04;94.69;97409.41;5020028;28;20520;-56
2023/10/12 12:42:46;;;;;;;13.65;7.70;;;;;;;11.05;94.60;97418.94;5072823;28;20044;-55
2023/10/12 12:45:12;;;;;;;12.02;8.35;;;;;;;11.06;92.71;97413.38;5022615;28;20043;-55
2023/10/12 12:47:38;;;;;;;11.02;7.68;;;;;;;11.12;91.13;97408.78;5056274;28;20067;-57
2023/10/12 12:50:04;;;;;;;11.10;8.10;;;;;;;11.09;90.45;97404.84;5039630;28;20082;-55
2023/10/12 12:52:31;;;;;;;10.18;7.57;;;;;;;11.11;90.34;97420.44;5025369;28;20050;-54
2023/10/12 12:54:57;;;;;;;11.63;7.53;;;;;;;11.16;89.93;97415.06;5060758;28;20032;-55
2023/10/12 12:57:25;;;;;;;15.43;7.80;;;;;;;11.17;90.23;97406.03;5060383;28;20044;-55
2023/10/12 12:59:51;;;;;;;10.35;7.40;;;;;;;11.22;89.89;97416.56;5027568;28;20044;-57
2023/10/12 13:02:17;;;;;;;13.48;7.22;;;;;;;11.28;89.94;97426.00;5024011;28;20060;-55
2023/10/12 13:04:42;;;;;;;12.07;7.45;;;;;;;11.34;89.92;97427.50;5034624;28;20543;-57
2023/10/12 13:07:08;;;;;;;12.15;7.90;;;;;;;11.32;89.17;97418.25;5057015;28;20076;-57
2023/10/12 13:09:36;;;;;;;10.40;6.78;;;;;;;11.34;89.71;97408.94;5074239;28;20040;-58
2023/10/12 13:12:06;;;;;;;10.95;7.38;;;;;;;11.34;89.57;97408.94;5075291;28;20087;-59
2023/10/12 13:14:32;;;;;;;13.10;7.28;;;;;;;11.35;89.71;97409.72;5074878;28;20547;-58
2023/10/12 13:16:58;;;;;;;10.82;7.65;;;;;;;11.36;89.67;97404.13;5074725;28;20102;-57
2023/10/12 13:19:24;;;;;;;9.45;7.13;;;;;;;11.32;89.72;97413.75;5073362;28;20587;-59
2023/10/12 13:21:50;;;;;;;9.73;6.80;;;;;;;11.31;89.60;97400.78;5073383;28;20056;-58
2023/10/12 13:24:16;;;;;;;12.25;7.38;;;;;;;11.33;89.96;97395.97;5073375;28;20119;-59
2023/10/12 13:26:45;;;;;;;11.88;7.13;;;;;;;11.31;90.32;97395.47;5074195;28;20082;-61
2023/10/12 13:29:12;;;;;;;13.27;7.55;;;;;;;11.29;90.34;97398.41;5073461;28;20075;-56
2023/10/12 13:31:38;;;;;;;11.43;7.38;;;;;;;11.28;89.89;97422.56;5073812;28;20040;-59
2023/10/12 13:34:05;;;;;;;10.07;6.50;;;;;;;11.27;90.17;97399.78;5073563;28;20032;-56
2023/10/12 13:36:32;;;;;;;9.60;6.68;;;;;;;11.26;90.50;97408.81;5074103;28;20541;-56
2023/10/12 13:38:59;;;;;;;11.05;7.25;;;;;;;11.28;90.86;97412.75;5073388;28;20040;-59
2023/10/12 13:41:25;;;;;;;12.88;6.85;;;;;;;11.27;90.33;97400.56;5073550;28;20391;-59
2023/10/12 13:43:51;;;;;;;9.25;6.78;;;;;;;11.27;90.83;97410.41;5071535;28;20040;-54
2023/10/12 13:46:17;;;;;;;11.02;6.50;;;;;;;11.25;90.29;97409.91;5072054;28;20452;-58
2023/10/12 13:48:47;;;;;;;11.45;6.45;;;;;;;11.28;90.63;97407.44;5071636;28;20041;-59
2023/10/12 13:51:19;;;;;;;9.95;6.50;;;;;;;11.30;90.69;97397.34;5052673;28;20055;-59
2023/10/12 13:53:46;;;;;;;8.65;6.20;;;;;;;11.35;90.51;97369.94;5072135;28;20048;-59
2023/10/12 13:56:12;;;;;;;8.50;6.22;;;;;;;11.31;90.18;97390.16;5072226;28;20040;-57
2023/10/12 13:58:39;;;;;;;9.15;5.80;;;;;;;11.29;90.26;97389.66;5054200;28;20394;-59
2023/10/12 14:01:14;;;;;;;7.88;6.07;;;;;;;11.29;90.55;97393.09;5071908;28;20056;-58
2023/10/12 14:03:44;;;;;;;8.10;6.13;;;;;;;11.28;89.67;97378.25;5072758;28;20377;-54
2023/10/12 14:06:11;;;;;;;8.32;5.18;;;;;;;11.31;89.42;97388.28;5050909;28;20276;-59
2023/10/12 14:08:40;;;;;;;9.73;5.40;;;;;;;11.35;88.69;97399.09;5073308;28;20036;-57
2023/10/12 14:11:06;;;;;;;6.97;4.95;;;;;;;11.41;88.80;97400.59;5073026;28;20052;-61
2023/10/12 14:13:33;;;;;;;7.80;5.05;;;;;;;11.39;89.02;97408.06;5073057;28;20036;-59
2023/10/12 14:15:59;;;;;;;7.28;5.15;;;;;;;11.36;88.94;97420.06;5072116;28;20036;-59
2023/10/12 14:18:30;;;;;;;11.43;5.15;;;;;;;11.35;90.07;97410.53;5072578;28;20036;-59
2023/10/12 14:20:57;;;;;;;7.80;5.03;;;;;;;11.28;89.99;97415.41;5045774;28;20070;-58
2023/10/12 14:23:26;;;;;;;8.00;5.28;;;;;;;11.24;90.56;97413.63;5072894;28;20080;-59
2023/10/12 14:25:54;;;;;;;7.82;5.25;;;;;;;11.20;90.47;97402.00;5071287;28;20044;-60
2023/10/12 14:28:20;;;;;;;8.10;5.47;;;;;;;11.21;90.68;97415.00;5072914;28;20102;-59
2023/10/12 14:30:47;;;;;;;7.40;4.82;;;;;;;11.19;90.29;97413.69;5073022;28;20044;-58
2023/10/12 14:33:19;;;;;;;9.93;5.40;;;;;;;11.19;90.09;97411.06;5071647;28;20044;-59
2023/10/12 14:35:46;;;;;;;8.85;5.18;;;;;;;11.14;90.43;97407.38;5071902;28;20040;-59